Time;durP1;ratioP1;P1;durP2;ratioP2;P2;SDS_P1;SDS_P2;PMS_P1;PMS_P2;Temp;Humidity;BMP_temperature;BMP_pressure;BME280_temperature;BME280_humidity;BME280_pressure;Samples;Min_cycle;Max_cycle;Signal;HPM_P1;HPM_P2
2021/07/13 00:00:44;;;;;;;8.43;4.30;;;16.80;99.90;;;;;;20899768;28;20448;-78
2021/07/13 00:10:45;;;;;;;6.27;3.60;;;16.80;99.90;;;;;;20903632;28;20041;-78
2021/07/13 00:20:46;;;;;;;4.47;3.10;;;16.90;99.90;;;;;;20889099;28;20033;-77
2021/07/13 00:30:47;;;;;;;14.90;3.90;;;16.90;99.90;;;;;;20907307;28;20035;-79
2021/07/13 00:40:48;;;;;;;5.80;3.50;;;16.90;99.90;;;;;;20924954;28;20025;-77
2021/07/13 00:50:50;;;;;;;5.13;3.77;;;16.70;99.90;;;;;;20920640;28;20025;-78
2021/07/13 01:00:51;;;;;;;7.82;4.63;;;16.70;99.90;;;;;;20921506;28;20070;-78
2021/07/13 01:10:55;;;;;;;9.70;6.10;;;16.70;99.90;;;;;;20919450;28;20029;-78
2021/07/13 01:21:30;;;;;;;10.38;5.35;;;16.60;99.90;;;;;;20900721;28;20025;-78
2021/07/13 01:31:31;;;;;;;7.68;5.53;;;16.70;99.90;;;;;;20919260;28;20053;-78
2021/07/13 01:41:33;;;;;;;11.57;5.63;;;16.70;99.90;;;;;;20903149;28;20439;-78
2021/07/13 01:51:35;;;;;;;9.50;5.00;;;16.70;99.90;;;;;;20907059;28;20553;-77
2021/07/13 02:01:37;;;;;;;6.55;4.55;;;16.70;99.90;;;;;;20906164;28;20050;-78
2021/07/13 02:11:42;;;;;;;3.35;2.45;;;16.70;99.90;;;;;;20905305;28;20029;-78
2021/07/13 02:21:43;;;;;;;4.90;2.03;;;16.60;99.90;;;;;;20935110;28;20040;-78
2021/07/13 02:32:06;;;;;;;2.03;1.20;;;16.50;99.90;;;;;;20931357;28;20043;-76
2021/07/13 02:42:07;;;;;;;;;;;16.50;99.90;;;;;;20915581;28;20072;-77
2021/07/13 02:52:10;;;;;;;0.50;0.38;;;16.40;99.90;;;;;;20925699;28;19927;-76
2021/07/13 03:02:12;;;;;;;2.63;0.40;;;16.30;99.90;;;;;;20916948;28;20052;-78
2021/07/13 03:12:14;;;;;;;0.50;0.30;;;15.90;99.90;;;;;;20906060;28;20062;-78
2021/07/13 03:22:24;;;;;;;0.20;0.20;;;15.70;99.90;;;;;;20925939;28;20100;-78
2021/07/13 03:32:25;;;;;;;0.73;0.40;;;15.50;99.90;;;;;;20908486;28;20037;-79
2021/07/13 03:42:27;;;;;;;0.23;0.20;;;15.40;99.90;;;;;;20956945;23;20105;-81
2021/07/13 03:52:28;;;;;;;0.77;0.10;;;15.10;99.90;;;;;;20850519;28;20045;-80
2021/07/13 04:02:28;;;;;;;0.47;0.10;;;14.90;99.90;;;;;;20887371;28;20040;-81
2021/07/13 04:12:29;;;;;;;0.10;0.10;;;14.70;99.90;;;;;;20920652;28;20036;-82
2021/07/13 04:22:30;;;;;;;0.20;0.20;;;14.50;99.90;;;;;;20900221;28;20033;-80
2021/07/13 04:32:31;;;;;;;1.10;0.37;;;14.30;99.90;;;;;;20921635;28;20052;-81
2021/07/13 04:42:32;;;;;;;0.38;0.35;;;14.20;99.90;;;;;;20920692;28;20037;-78
2021/07/13 04:52:34;;;;;;;1.07;0.47;;;14.10;99.90;;;;;;20901613;28;20043;-80
2021/07/13 05:02:34;;;;;;;4.83;1.20;;;14.00;99.90;;;;;;20903993;28;20025;-82
2021/07/13 05:12:39;;;;;;;0.60;0.50;;;13.90;99.90;;;;;;20916013;28;20036;-79
2021/07/13 05:22:41;;;;;;;2.20;0.90;;;13.80;99.90;;;;;;20837255;28;20029;-78
2021/07/13 05:32:42;;;;;;;1.73;1.17;;;13.80;99.90;;;;;;20816325;28;20048;-79
2021/07/13 05:42:43;;;;;;;1.97;1.10;;;13.80;99.90;;;;;;20816139;28;20033;-77
2021/07/13 05:52:44;;;;;;;7.40;1.30;;;13.80;99.90;;;;;;20830137;28;20037;-79
2021/07/13 06:02:45;;;;;;;1.70;1.40;;;13.80;99.90;;;;;;20820254;28;20029;-80
2021/07/13 06:12:47;;;;;;;2.23;1.30;;;13.90;99.90;;;;;;20852647;28;20435;-77
2021/07/13 06:22:48;;;;;;;2.33;1.70;;;13.90;99.90;;;;;;20835392;28;20152;-81
2021/07/13 06:32:49;;;;;;;1.93;1.27;;;13.80;99.90;;;;;;20848910;28;20025;-78
2021/07/13 06:42:49;;;;;;;6.70;1.57;;;13.90;99.90;;;;;;20828856;28;20083;-82
2021/07/13 06:52:51;;;;;;;1.53;1.30;;;13.80;99.90;;;;;;20813155;28;20079;-81
2021/07/13 07:02:52;;;;;;;3.38;2.03;;;13.60;99.90;;;;;;20845215;28;20025;-80
2021/07/13 07:12:53;;;;;;;3.50;2.50;;;13.60;99.90;;;;;;20849506;28;20083;-83
2021/07/13 07:22:59;;;;;;;4.40;2.90;;;13.50;99.90;;;;;;20811593;28;20037;-83
2021/07/13 07:33:00;;;;;;;3.67;2.08;;;13.50;99.90;;;;;;20844794;28;20489;-80
2021/07/13 07:43:01;;;;;;;3.70;2.30;;;13.20;99.90;;;;;;20825558;28;20496;-81
2021/07/13 07:53:02;;;;;;;9.60;1.30;;;13.10;99.90;;;;;;20823528;28;20029;-81
2021/07/13 08:03:03;;;;;;;1.77;1.10;;;13.00;99.90;;;;;;20839802;28;20053;-81
2021/07/13 08:13:04;;;;;;;1.93;1.30;;;13.00;99.90;;;;;;20841045;28;20056;-79
2021/07/13 08:23:05;;;;;;;1.93;1.30;;;13.00;99.90;;;;;;20822296;28;20036;-85
2021/07/13 08:33:06;;;;;;;5.37;1.13;;;13.00;99.90;;;;;;20839351;28;20116;-82
2021/07/13 08:43:07;;;;;;;1.43;1.03;;;13.00;99.90;;;;;;20828637;28;20082;-83
2021/07/13 08:53:08;;;;;;;2.03;1.07;;;13.00;99.90;;;;;;20903713;28;20028;-77
2021/07/13 09:03:10;;;;;;;1.43;1.10;;;13.10;99.90;;;;;;20903233;28;20055;-79
2021/07/13 09:13:11;;;;;;;2.08;1.20;;;13.10;99.90;;;;;;20900494;28;20042;-83
2021/07/13 09:23:12;;;;;;;3.10;1.60;;;13.20;99.90;;;;;;20906336;28;20090;-83
2021/07/13 09:33:18;;;;;;;3.03;2.10;;;13.20;99.90;;;;;;20938548;28;20044;-82
2021/07/13 09:43:22;;;;;;;5.25;2.50;;;13.10;99.90;;;;;;20910797;23;20045;-77
2021/07/13 09:53:22;;;;;;;3.30;2.08;;;13.10;99.90;;;;;;20922602;28;20391;-76
2021/07/13 10:03:24;;;;;;;3.33;2.23;;;13.20;99.90;;;;;;20921525;28;20104;-76
2021/07/13 10:13:25;;;;;;;;;;;13.20;99.90;;;;;;20920850;28;20025;-76
2021/07/13 10:23:28;;;;;;;4.55;2.53;;;13.30;99.90;;;;;;20919612;28;20596;-77
2021/07/13 10:33:38;;;;;;;3.60;2.10;;;13.40;99.90;;;;;;20918738;28;20036;-76
2021/07/13 10:43:47;;;;;;;2.90;1.60;;;13.60;99.90;;;;;;20900335;28;20037;-76
2021/07/13 10:54:03;;;;;;;3.38;2.05;;;13.80;99.90;;;;;;20917126;28;20564;-77
2021/07/13 11:04:09;;;;;;;4.28;1.27;;;13.60;99.90;;;;;;20896454;28;20103;-77
2021/07/13 11:14:11;;;;;;;2.70;1.48;;;13.70;99.90;;;;;;20915762;28;20025;-77
2021/07/13 11:24:13;;;;;;;;;;;13.60;99.90;;;;;;20898441;28;20036;-77
2021/07/13 11:34:17;;;;;;;2.70;1.60;;;13.70;99.90;;;;;;20914366;28;20290;-77
2021/07/13 11:44:19;;;;;;;2.65;1.75;;;13.90;99.90;;;;;;20894404;28;20041;-77
2021/07/13 11:54:41;;;;;;;4.27;1.80;;;13.90;99.90;;;;;;20912734;28;20033;-77
2021/07/13 12:04:45;;;;;;;4.35;1.60;;;14.00;99.90;;;;;;20911398;28;20466;-77
2021/07/13 12:14:52;;;;;;;3.90;1.40;;;14.00;99.90;;;;;;20908277;28;20063;-77
2021/07/13 12:25:00;;;;;;;3.30;1.30;;;14.20;99.90;;;;;;20890771;28;20083;-77
2021/07/13 12:35:11;;;;;;;3.47;1.83;;;14.20;99.90;;;;;;20909591;28;20070;-77
2021/07/13 12:45:12;;;;;;;1.65;1.20;;;14.40;99.90;;;;;;20909305;28;20029;-78
2021/07/13 12:55:16;;;;;;;4.20;1.50;;;14.70;99.90;;;;;;20890777;28;20040;-78
2021/07/13 13:05:28;;;;;;;1.88;1.15;;;14.60;99.90;;;;;;20890278;28;20040;-78
2021/07/13 13:15:30;;;;;;;3.15;0.60;;;14.90;99.90;;;;;;20889906;28;20076;-78
2021/07/13 13:25:31;;;;;;;0.70;0.40;;;14.90;99.90;;;;;;20907244;28;20029;-77
2021/07/13 13:45:42;;;;;;;2.35;0.60;;;15.70;99.90;;;;;;20906427;28;20510;-77
2021/07/13 13:55:44;;;;;;;4.80;2.45;;;15.70;99.90;;;;;;20888539;28;20491;-77
2021/07/13 14:05:45;;;;;;;1.60;0.30;;;15.80;99.90;;;;;;20887886;28;20029;-77
2021/07/13 14:15:46;;;;;;;5.63;2.60;;;15.80;99.90;;;;;;20918745;28;20179;-77
2021/07/13 14:25:47;;;;;;;0.63;0.40;;;16.00;99.90;;;;;;20919781;28;20065;-76
2021/07/13 14:35:48;;;;;;;0.77;0.40;;;16.40;99.90;;;;;;20901318;28;20029;-77
2021/07/13 14:45:50;;;;;;;0.47;0.40;;;16.10;99.90;;;;;;20918370;28;20035;-76
2021/07/13 14:55:52;;;;;;;0.28;0.28;;;16.10;99.90;;;;;;20917633;28;20044;-77
2021/07/13 15:05:53;;;;;;;1.48;0.30;;;15.90;99.90;;;;;;20913718;28;20430;-76
2021/07/13 15:15:54;;;;;;;0.47;0.30;;;16.00;99.90;;;;;;20912959;28;20147;-77
2021/07/13 15:25:55;;;;;;;3.00;0.50;;;16.50;99.90;;;;;;20914050;28;20231;-76
2021/07/13 15:35:56;;;;;;;2.73;0.57;;;16.30;99.90;;;;;;20912086;28;20123;-76
2021/07/13 15:45:57;;;;;;;0.43;0.40;;;16.10;99.90;;;;;;21047499;22;20540;-77
2021/07/13 15:55:58;;;;;;;1.70;0.50;;;15.90;99.90;;;;;;21107916;28;20128;-77
2021/07/13 16:05:59;;;;;;;2.80;0.60;;;15.90;99.90;;;;;;21141346;28;20019;-78
2021/07/13 16:15:59;;;;;;;0.80;0.70;;;15.90;99.90;;;;;;21062193;28;20028;-77
2021/07/13 16:26:00;;;;;;;1.33;0.60;;;15.80;99.90;;;;;;21131456;28;20584;-77
2021/07/13 16:36:01;;;;;;;0.63;0.60;;;15.60;99.90;;;;;;21138198;28;20410;-78
2021/07/13 16:46:02;;;;;;;1.97;0.60;;;15.50;99.90;;;;;;21069567;28;20058;-77
2021/07/13 16:56:03;;;;;;;1.93;0.93;;;15.50;99.90;;;;;;21042238;28;20054;-78
2021/07/13 17:06:05;;;;;;;1.80;0.90;;;15.40;99.90;;;;;;21071132;28;20529;-77
2021/07/13 17:16:06;;;;;;;1.13;0.60;;;15.60;99.90;;;;;;21050704;28;20493;-78
2021/07/13 17:26:06;;;;;;;7.17;1.20;;;15.60;99.90;;;;;;21054902;28;20064;-78
2021/07/13 17:36:07;;;;;;;4.87;1.17;;;15.40;99.90;;;;;;21054386;28;20039;-78
2021/07/13 17:46:08;;;;;;;1.70;0.77;;;15.30;99.90;;;;;;21070845;28;20030;-78
2021/07/13 17:56:10;;;;;;;1.13;0.60;;;15.10;99.90;;;;;;21111293;28;20514;-77
2021/07/13 18:06:12;;;;;;;2.63;0.43;;;14.90;99.90;;;;;;21154163;28;20584;-76
2021/07/13 18:16:13;;;;;;;2.00;0.50;;;14.90;99.90;;;;;;21157969;28;20039;-76
2021/07/13 18:26:14;;;;;;;0.73;0.47;;;14.60;99.90;;;;;;21100719;28;20858;-76
2021/07/13 18:36:15;;;;;;;3.17;0.47;;;14.40;99.90;;;;;;21067782;28;20051;-76
2021/07/13 18:46:19;;;;;;;3.00;0.63;;;14.50;99.90;;;;;;21083923;28;20051;-77
2021/07/13 18:56:30;;;;;;;1.10;0.45;;;14.60;99.90;;;;;;21148859;28;20028;-75
2021/07/13 19:06:32;;;;;;;1.60;0.57;;;14.20;99.90;;;;;;21144825;28;20031;-76
2021/07/13 19:16:33;;;;;;;2.67;0.52;;;14.00;99.90;;;;;;21175960;28;20027;-77
2021/07/13 19:26:36;;;;;;;2.00;0.67;;;13.80;99.90;;;;;;21143058;28;20042;-78
2021/07/13 19:47:00;;;;;;;2.58;0.70;;;13.50;99.90;;;;;;21099202;28;20051;-76
2021/07/13 19:57:01;;;;;;;6.83;0.90;;;13.30;99.90;;;;;;21129026;28;20032;-78
2021/07/13 20:07:03;;;;;;;1.25;0.68;;;13.40;99.90;;;;;;21132249;28;20132;-77
2021/07/13 20:17:04;;;;;;;4.13;0.80;;;13.40;99.90;;;;;;21160357;28;20500;-76
2021/07/13 20:27:05;;;;;;;1.13;0.60;;;13.40;99.90;;;;;;21097055;28;20020;-75
2021/07/13 20:37:05;;;;;;;7.10;1.23;;;13.40;99.90;;;;;;21113001;28;20103;-75
2021/07/13 20:47:06;;;;;;;1.73;0.90;;;13.40;99.90;;;;;;21097451;28;20066;-75
2021/07/13 20:57:11;;;;;;;1.80;0.73;;;13.00;99.90;;;;;;21113388;28;20038;-75
2021/07/13 21:07:11;;;;;;;10.73;1.70;;;12.90;99.90;;;;;;21109599;28;20468;-75
2021/07/13 21:17:12;;;;;;;4.30;2.07;;;12.90;99.90;;;;;;21080049;28;20035;-75
2021/07/13 21:27:13;;;;;;;6.33;1.73;;;12.70;99.90;;;;;;21116443;28;20046;-76
2021/07/13 21:37:17;;;;;;;2.37;1.80;;;12.70;99.90;;;;;;21096749;28;20034;-75
2021/07/13 21:47:19;;;;;;;2.20;1.40;;;12.70;99.90;;;;;;21095464;28;20039;-76
2021/07/13 21:57:20;;;;;;;8.30;2.95;;;12.70;99.90;;;;;;21115989;28;20045;-76
2021/07/13 22:07:21;;;;;;;7.93;2.60;;;12.70;99.90;;;;;;21095214;28;20119;-76
2021/07/13 22:17:23;;;;;;;4.47;2.37;;;12.30;99.90;;;;;;21094589;28;20063;-76
2021/07/13 22:27:23;;;;;;;1.87;1.50;;;12.30;99.90;;;;;;21073953;28;20028;-76
2021/07/13 22:37:24;;;;;;;6.13;2.53;;;12.40;99.90;;;;;;21067220;28;20123;-76
2021/07/13 22:47:25;;;;;;;4.07;2.50;;;12.40;99.90;;;;;;21067095;28;20039;-76
2021/07/13 22:57:26;;;;;;;4.03;2.43;;;12.40;99.90;;;;;;21084574;28;20111;-75
2021/07/13 23:07:27;;;;;;;4.40;2.33;;;12.20;99.90;;;;;;21083913;28;20122;-76
2021/07/13 23:17:28;;;;;;;6.67;3.53;;;12.30;99.90;;;;;;21083102;28;20027;-76
2021/07/13 23:27:29;;;;;;;13.70;5.07;;;12.20;99.90;;;;;;21082361;28;20028;-76
2021/07/13 23:37:30;;;;;;;13.63;7.30;;;12.00;99.90;;;;;;21081108;28;20031;-75
2021/07/13 23:47:31;;;;;;;16.23;8.97;;;11.90;99.90;;;;;;21132289;28;20034;-75
2021/07/13 23:57:32;;;;;;;16.47;9.47;;;11.80;99.90;;;;;;21089986;28;20024;-75
